createdAt,value
2022-10-05T00:02:22.083Z,0.63
2022-10-05T00:04:52.694Z,0.55
2022-10-05T00:07:21.369Z,0.70
2022-10-05T00:09:56.371Z,0.70
2022-10-05T00:12:24.459Z,0.50
2022-10-05T00:14:57.829Z,0.55
2022-10-05T00:17:27.897Z,0.75
2022-10-05T00:19:55.147Z,0.50
2022-10-05T00:22:24.341Z,0.63
2022-10-05T00:24:56.476Z,0.60
2022-10-05T00:27:26.471Z,0.68
2022-10-05T00:29:58.536Z,0.70
2022-10-05T00:32:26.431Z,0.45
2022-10-05T00:34:54.448Z,0.47
2022-10-05T00:37:21.067Z,0.63
2022-10-05T00:39:49.633Z,0.50
2022-10-05T00:42:36.365Z,0.52
2022-10-05T00:45:18.222Z,0.47
2022-10-05T00:48:03.077Z,0.40
2022-10-05T00:50:42.022Z,0.30
2022-10-05T00:53:26.798Z,0.65
2022-10-05T00:56:07.440Z,0.50
2022-10-05T00:58:41.489Z,0.30
2022-10-05T01:01:14.808Z,0.70
2022-10-05T01:04:03.242Z,0.47
2022-10-05T01:06:44.331Z,0.40
2022-10-05T01:09:26.402Z,0.60
2022-10-05T01:12:07.612Z,0.45
2022-10-05T01:14:49.012Z,0.30
2022-10-05T01:17:35.056Z,0.30
2022-10-05T01:20:27.256Z,0.40
2022-10-05T01:23:41.468Z,0.38
2022-10-05T01:26:35.307Z,0.50
2022-10-05T01:29:09.070Z,0.60
2022-10-05T01:31:45.218Z,0.50
2022-10-05T01:35:00.162Z,0.60
2022-10-05T01:37:30.468Z,0.60
2022-10-05T01:40:28.265Z,0.70
2022-10-05T01:43:20.409Z,0.80
2022-10-05T01:46:07.056Z,0.82
2022-10-05T01:48:48.045Z,0.80
2022-10-05T01:51:33.624Z,0.82
2022-10-05T01:54:08.644Z,0.80
2022-10-05T01:56:59.751Z,0.77
2022-10-05T01:59:56.129Z,0.75
2022-10-05T02:02:26.137Z,0.80
2022-10-05T02:05:03.611Z,0.90
2022-10-05T02:07:36.788Z,1.17
2022-10-05T02:10:49.416Z,1.15
2022-10-05T02:13:29.244Z,1.30
2022-10-05T02:16:03.653Z,1.60
2022-10-05T02:18:49.923Z,1.52
2022-10-05T02:21:18.501Z,1.48
2022-10-05T02:23:49.657Z,1.70
2022-10-05T02:26:17.597Z,1.45
2022-10-05T02:28:50.505Z,1.05
2022-10-05T02:31:29.409Z,1.75
2022-10-05T02:34:22.792Z,1.20
2022-10-05T02:37:15.825Z,1.63
2022-10-05T02:40:08.426Z,1.27
2022-10-05T02:42:55.498Z,1.38
2022-10-05T02:45:57.183Z,1.25
2022-10-05T02:48:42.726Z,1.20
2022-10-05T02:51:36.400Z,1.45
2022-10-05T02:54:40.901Z,1.25
2022-10-05T02:57:22.119Z,1.52
2022-10-05T03:00:02.189Z,1.38
2022-10-05T03:02:56.486Z,1.35
2022-10-05T03:05:41.974Z,1.65
2022-10-05T03:08:14.977Z,1.70
2022-10-05T03:10:56.870Z,1.67
2022-10-05T03:13:48.557Z,1.60
2022-10-05T03:16:39.419Z,1.60
2022-10-05T03:19:31.326Z,1.38
2022-10-05T03:22:09.306Z,1.88
2022-10-05T03:25:01.062Z,1.63
2022-10-05T03:27:50.258Z,1.48
2022-10-05T03:30:21.780Z,1.63
2022-10-05T03:33:06.397Z,1.60
2022-10-05T03:35:49.330Z,1.83
2022-10-05T03:38:35.918Z,2.15
2022-10-05T03:41:16.249Z,1.70
2022-10-05T03:44:01.147Z,1.90
2022-10-05T03:46:43.028Z,1.20
2022-10-05T03:49:28.756Z,1.75
2022-10-05T03:52:04.091Z,1.70
2022-10-05T03:54:39.465Z,1.90
2022-10-05T03:57:28.315Z,1.70
2022-10-05T04:00:05.245Z,2.00
2022-10-05T04:02:48.202Z,2.05
2022-10-05T04:05:21.753Z,1.98
2022-10-05T04:07:56.798Z,1.88
2022-10-05T04:10:35.087Z,1.80
2022-10-05T04:13:09.932Z,1.85
2022-10-05T04:15:39.859Z,1.92
2022-10-05T04:18:18.097Z,2.10
2022-10-05T04:20:52.100Z,2.10
2022-10-05T04:23:37.767Z,1.92
2022-10-05T04:26:11.612Z,1.90
2022-10-05T04:28:56.067Z,2.00
2022-10-05T04:31:52.434Z,2.00
2022-10-05T04:34:58.262Z,1.80
2022-10-05T04:37:31.348Z,2.10
2022-10-05T04:40:26.365Z,1.70
2022-10-05T04:43:13.306Z,1.77
2022-10-05T04:46:08.009Z,1.85
2022-10-05T04:49:16.875Z,1.55
2022-10-05T04:52:01.789Z,1.73
2022-10-05T04:54:50.521Z,1.45
2022-10-05T04:57:25.116Z,1.90
2022-10-05T05:00:05.650Z,1.90
2022-10-05T05:02:47.721Z,1.98
2022-10-05T05:05:33.725Z,1.88
2022-10-05T05:08:11.401Z,1.98
2022-10-05T05:11:13.745Z,1.70
2022-10-05T05:17:56.488Z,2.03
2022-10-05T05:21:05.005Z,2.72
2022-10-05T05:23:55.583Z,2.97
2022-10-05T05:26:53.409Z,2.90
2022-10-05T05:29:37.247Z,3.10
2022-10-05T05:32:10.608Z,3.00
2022-10-05T05:35:11.785Z,2.92
2022-10-05T05:38:09.815Z,2.75
2022-10-05T05:40:47.699Z,2.20
2022-10-05T05:43:33.402Z,2.65
2022-10-05T05:46:06.267Z,2.67
2022-10-05T05:48:44.181Z,3.05
2022-10-05T05:51:19.592Z,2.63
2022-10-05T05:53:53.376Z,2.30
2022-10-05T05:56:42.050Z,2.58
2022-10-05T05:59:20.168Z,2.90
2022-10-05T06:01:53.222Z,2.92
2022-10-05T06:04:29.434Z,2.53
2022-10-05T06:06:58.258Z,3.03
2022-10-05T06:09:42.020Z,2.85
2022-10-05T06:12:36.136Z,2.88
2022-10-05T06:15:22.635Z,2.80
2022-10-05T06:17:54.762Z,4.07
2022-10-05T06:20:31.004Z,3.20
2022-10-05T06:23:02.577Z,3.05
2022-10-05T06:26:12.095Z,2.85
2022-10-05T06:28:41.870Z,3.20
2022-10-05T06:31:35.143Z,3.35
2022-10-05T06:34:28.748Z,3.80
2022-10-05T06:37:00.951Z,2.70
2022-10-05T06:39:37.793Z,3.47
2022-10-05T06:42:52.051Z,3.10
2022-10-05T06:46:06.314Z,3.10
2022-10-05T06:49:00.359Z,2.90
2022-10-05T06:52:04.599Z,2.95
2022-10-05T06:54:36.338Z,2.65
2022-10-05T06:57:03.304Z,3.05
2022-10-05T06:59:50.289Z,2.72
2022-10-05T07:02:30.847Z,2.53
2022-10-05T07:05:12.906Z,2.75
2022-10-05T07:07:57.898Z,2.50
2022-10-05T07:10:51.174Z,2.88
2022-10-05T07:14:00.122Z,2.90
2022-10-05T07:16:42.088Z,2.45
2022-10-05T07:19:46.212Z,2.00
2022-10-05T07:22:34.244Z,2.70
2022-10-05T07:25:12.072Z,2.00
2022-10-05T07:27:51.779Z,2.20
2022-10-05T07:30:19.385Z,2.10
2022-10-05T07:33:17.793Z,2.28
2022-10-05T07:36:18.834Z,1.90
2022-10-05T07:39:03.171Z,1.92
2022-10-05T07:41:51.865Z,1.63
2022-10-05T07:44:30.959Z,1.60
2022-10-05T07:47:15.519Z,1.80
2022-10-05T07:50:04.125Z,2.00
2022-10-05T07:52:39.929Z,1.60
2022-10-05T07:55:31.885Z,1.52
2022-10-05T07:58:39.848Z,2.08
2022-10-05T08:01:13.552Z,1.60
2022-10-05T08:04:09.778Z,1.45
2022-10-05T08:07:00.609Z,1.52
2022-10-05T08:12:24.355Z,1.90
2022-10-05T08:15:04.349Z,1.75
2022-10-05T08:17:38.055Z,1.20
2022-10-05T08:20:33.690Z,1.38
2022-10-05T08:23:31.634Z,1.45
2022-10-05T08:26:32.321Z,1.50
2022-10-05T08:29:04.939Z,1.85
2022-10-05T08:31:37.898Z,1.08
2022-10-05T08:34:23.160Z,1.40
2022-10-05T08:37:02.522Z,1.30
2022-10-05T08:39:37.369Z,1.35
2022-10-05T08:42:25.796Z,1.25
2022-10-05T08:45:01.916Z,1.58
2022-10-05T08:47:49.906Z,1.40
2022-10-05T08:50:35.460Z,1.30
2022-10-05T08:53:32.955Z,1.52
2022-10-05T08:56:27.765Z,1.10
2022-10-05T08:59:14.160Z,1.25
2022-10-05T09:01:50.453Z,1.20
2022-10-05T09:04:55.076Z,1.30
2022-10-05T09:07:46.218Z,1.25
2022-10-05T09:10:53.487Z,1.10
2022-10-05T09:13:48.088Z,1.35
2022-10-05T09:16:38.121Z,1.02
2022-10-05T09:19:32.598Z,0.82
2022-10-05T09:22:18.185Z,0.70
2022-10-05T09:24:58.128Z,0.90
2022-10-05T09:27:36.877Z,0.88
2022-10-05T09:30:30.466Z,0.68
2022-10-05T09:33:18.574Z,0.63
2022-10-05T09:36:03.456Z,0.70
2022-10-05T09:39:17.981Z,0.80
2022-10-05T09:42:06.042Z,1.00
2022-10-05T09:44:53.926Z,1.00
2022-10-05T09:47:59.995Z,0.60
2022-10-05T09:50:46.603Z,0.90
2022-10-05T09:53:40.737Z,1.13
2022-10-05T09:56:34.883Z,1.23
2022-10-05T09:59:10.997Z,0.85
2022-10-05T10:02:00.631Z,0.98
2022-10-05T10:04:52.003Z,0.80
2022-10-05T10:08:13.217Z,0.98
2022-10-05T10:10:48.534Z,0.77
2022-10-05T10:13:18.185Z,0.85
2022-10-05T10:16:04.542Z,1.00
2022-10-05T10:18:59.414Z,0.80
2022-10-05T10:22:17.850Z,1.00
2022-10-05T10:25:20.950Z,1.00
2022-10-05T10:28:02.887Z,0.82
2022-10-05T10:31:07.281Z,0.93
2022-10-05T10:33:45.889Z,0.80
2022-10-05T10:36:44.562Z,0.70
2022-10-05T10:39:29.754Z,0.95
2022-10-05T10:42:26.657Z,0.75
2022-10-05T10:45:19.412Z,1.17
2022-10-05T10:47:51.898Z,0.90
2022-10-05T10:50:55.827Z,0.77
2022-10-05T10:53:41.764Z,0.70
2022-10-05T10:56:46.537Z,0.95
2022-10-05T10:59:25.539Z,0.73
2022-10-05T11:02:12.808Z,1.00
2022-10-05T11:05:04.717Z,0.95
2022-10-05T11:07:58.907Z,0.70
2022-10-05T11:10:31.969Z,0.65
2022-10-05T11:13:17.183Z,0.63
2022-10-05T11:21:33.809Z,0.80
2022-10-05T11:24:26.664Z,0.82
2022-10-05T11:27:12.146Z,0.50
2022-10-05T11:29:47.706Z,0.70
2022-10-05T11:32:26.437Z,0.60
2022-10-05T11:35:23.833Z,0.50
2022-10-05T11:38:16.725Z,0.70
2022-10-05T11:41:08.270Z,0.63
2022-10-05T11:44:07.026Z,0.50
2022-10-05T11:47:08.788Z,0.40
2022-10-05T11:49:49.607Z,0.40
2022-10-05T11:53:15.075Z,0.40
2022-10-05T11:56:08.114Z,0.47
2022-10-05T11:58:54.121Z,0.77
2022-10-05T12:01:42.011Z,1.20
2022-10-05T12:04:27.495Z,0.73
2022-10-05T12:07:00.160Z,0.70
2022-10-05T12:09:35.114Z,0.60
2022-10-05T12:12:06.236Z,1.50
2022-10-05T12:14:51.935Z,0.57
2022-10-05T12:17:24.804Z,0.75
2022-10-05T12:20:02.788Z,0.52
2022-10-05T12:22:45.335Z,0.50
2022-10-05T12:25:42.386Z,0.60
2022-10-05T12:28:28.082Z,0.70
2022-10-05T12:31:02.694Z,0.80
2022-10-05T12:33:36.878Z,0.90
2022-10-05T12:36:06.804Z,1.00
2022-10-05T12:38:58.284Z,0.60
2022-10-05T12:41:48.157Z,0.68
2022-10-05T12:44:33.393Z,0.60
2022-10-05T12:47:31.808Z,0.93
2022-10-05T12:50:41.670Z,0.95
2022-10-05T12:53:23.312Z,0.55
2022-10-05T12:55:59.203Z,0.80
2022-10-05T12:58:47.412Z,0.60
2022-10-05T13:01:34.316Z,0.70
2022-10-05T13:04:17.516Z,0.80
2022-10-05T13:07:25.790Z,0.98
2022-10-05T13:10:43.253Z,0.90
2022-10-05T13:13:21.925Z,1.00
2022-10-05T13:16:10.428Z,1.13
2022-10-05T13:19:06.584Z,0.90
2022-10-05T13:21:52.095Z,1.00
2022-10-05T13:24:36.417Z,1.05
2022-10-05T13:27:14.198Z,0.98
2022-10-05T13:30:13.496Z,0.82
2022-10-05T13:32:47.984Z,1.10
2022-10-05T13:35:23.278Z,1.10
2022-10-05T13:38:08.470Z,1.40
2022-10-05T13:41:09.337Z,0.98
2022-10-05T13:43:52.599Z,1.17
2022-10-05T13:46:30.291Z,1.85
2022-10-05T13:49:17.564Z,1.10
2022-10-05T13:51:46.713Z,1.10
2022-10-05T13:54:19.218Z,0.90
2022-10-05T13:57:07.101Z,1.23
2022-10-05T13:59:53.655Z,0.90
2022-10-05T14:02:29.636Z,1.30
2022-10-05T14:05:19.367Z,1.00
2022-10-05T14:07:58.594Z,0.90
2022-10-05T14:10:41.850Z,0.93
2022-10-05T14:13:13.423Z,0.70
2022-10-05T14:15:42.412Z,0.73
2022-10-05T14:18:24.772Z,0.73
2022-10-05T14:21:13.484Z,0.90
2022-10-05T14:23:40.278Z,0.77
2022-10-05T14:26:31.844Z,1.00
2022-10-05T14:29:16.399Z,0.90
2022-10-05T14:31:51.172Z,1.30
2022-10-05T14:34:29.235Z,1.13
2022-10-05T14:37:09.986Z,1.17
2022-10-05T14:42:15.357Z,0.80
2022-10-05T14:44:43.267Z,1.10
2022-10-05T14:47:23.998Z,1.00
2022-10-05T14:50:10.774Z,0.90
2022-10-05T14:52:39.193Z,1.08
2022-10-05T14:55:29.149Z,1.30
2022-10-05T14:58:23.942Z,1.30
2022-10-05T15:01:02.729Z,0.95
2022-10-05T15:03:42.050Z,1.10
2022-10-05T15:06:33.107Z,1.40
2022-10-05T15:09:23.033Z,1.17
2022-10-05T15:11:53.256Z,1.05
2022-10-05T15:14:29.767Z,1.30
2022-10-05T15:17:03.207Z,1.23
2022-10-05T15:20:17.170Z,1.10
2022-10-05T15:22:49.769Z,1.23
2022-10-05T15:25:30.517Z,1.40
2022-10-05T15:28:19.038Z,1.65
2022-10-05T15:31:33.769Z,1.20
2022-10-05T15:34:15.878Z,1.38
2022-10-05T15:36:43.046Z,1.30
2022-10-05T15:39:37.576Z,1.15
2022-10-05T15:42:10.138Z,1.13
2022-10-05T15:44:49.351Z,1.02
2022-10-05T15:47:56.370Z,1.65
2022-10-05T15:50:38.035Z,1.75
2022-10-05T15:53:21.598Z,1.80
2022-10-05T15:55:55.663Z,1.95
2022-10-05T15:58:42.073Z,1.77
2022-10-05T16:01:17.646Z,1.58
2022-10-05T16:04:01.269Z,1.77
2022-10-05T16:06:56.493Z,1.30
2022-10-05T16:09:42.534Z,1.83
2022-10-05T16:12:14.280Z,1.40
2022-10-05T16:15:06.817Z,1.90
2022-10-05T16:17:48.725Z,1.60
2022-10-05T16:20:36.627Z,1.42
2022-10-05T16:23:39.787Z,1.70
2022-10-05T16:26:36.548Z,1.50
2022-10-05T16:29:12.991Z,1.58
2022-10-05T16:32:11.991Z,1.40
2022-10-05T16:35:04.889Z,1.55
2022-10-05T16:38:01.290Z,1.40
2022-10-05T16:40:44.471Z,1.80
2022-10-05T16:43:30.402Z,1.77
2022-10-05T16:46:12.428Z,1.65
2022-10-05T16:49:16.861Z,1.95
2022-10-05T16:52:07.009Z,1.42
2022-10-05T16:54:47.522Z,1.48
2022-10-05T16:57:22.171Z,1.58
2022-10-05T17:00:17.424Z,1.52
2022-10-05T17:02:58.654Z,1.70
2022-10-05T17:05:41.348Z,1.80
2022-10-05T17:08:21.556Z,1.85
2022-10-05T17:11:04.682Z,1.80
2022-10-05T17:13:44.680Z,2.28
2022-10-05T17:16:23.904Z,1.77
2022-10-05T17:19:11.923Z,1.85
2022-10-05T17:21:44.467Z,1.70
2022-10-05T17:24:41.706Z,2.22
2022-10-05T17:27:21.060Z,1.65
2022-10-05T17:29:52.291Z,1.77
2022-10-05T17:32:18.927Z,1.90
2022-10-05T17:35:00.862Z,1.77
2022-10-05T17:37:27.538Z,1.70
2022-10-05T17:39:56.236Z,1.88
2022-10-05T17:42:34.226Z,1.67
2022-10-05T17:45:20.824Z,1.70
2022-10-05T17:48:03.375Z,1.60
2022-10-05T17:51:03.538Z,1.90
2022-10-05T17:54:03.578Z,1.55
2022-10-05T17:56:35.610Z,2.20
2022-10-05T17:59:04.928Z,1.63
2022-10-05T18:01:40.250Z,1.90
2022-10-05T18:04:12.942Z,2.10
2022-10-05T18:06:52.916Z,1.65
2022-10-05T18:09:22.954Z,1.70
2022-10-05T18:12:08.708Z,1.80
2022-10-05T18:15:08.125Z,1.75
2022-10-05T18:17:47.015Z,1.80
2022-10-05T18:20:32.158Z,1.60
2022-10-05T18:23:09.458Z,1.55
2022-10-05T18:25:52.057Z,1.48
2022-10-05T18:28:40.197Z,1.60
2022-10-05T18:31:45.844Z,1.70
2022-10-05T18:34:39.446Z,2.08
2022-10-05T18:37:15.569Z,1.83
2022-10-05T18:39:54.762Z,1.98
2022-10-05T18:42:33.012Z,1.77
2022-10-05T18:45:18.829Z,1.50
2022-10-05T18:47:57.638Z,1.55
2022-10-05T18:50:44.389Z,1.40
2022-10-05T18:53:17.307Z,1.83
2022-10-05T18:55:57.814Z,1.60
2022-10-05T18:58:58.003Z,1.90
2022-10-05T19:02:11.040Z,1.40
2022-10-05T19:05:45.961Z,1.42
2022-10-05T19:08:35.903Z,2.00
2022-10-05T19:11:33.870Z,1.65
2022-10-05T19:14:22.030Z,1.80
2022-10-05T19:17:15.835Z,1.55
2022-10-05T19:20:04.358Z,2.53
2022-10-05T19:22:50.177Z,2.10
2022-10-05T19:25:49.233Z,2.17
2022-10-05T19:28:31.526Z,1.33
2022-10-05T19:31:27.008Z,1.65
2022-10-05T19:33:59.850Z,1.45
2022-10-05T19:36:53.356Z,1.70
2022-10-05T19:39:45.114Z,1.40
2022-10-05T19:42:41.026Z,1.40
2022-10-05T19:45:26.020Z,1.10
2022-10-05T19:48:27.868Z,1.35
2022-10-05T19:50:58.334Z,1.58
2022-10-05T19:53:37.115Z,1.10
2022-10-05T19:56:22.158Z,1.20
2022-10-05T19:58:50.275Z,1.13
2022-10-05T20:01:35.459Z,1.30
2022-10-05T20:04:02.866Z,1.42
2022-10-05T20:06:31.067Z,1.27
2022-10-05T20:09:00.129Z,1.10
2022-10-05T20:11:28.113Z,1.23
2022-10-05T20:13:58.530Z,1.20
2022-10-05T20:19:52.414Z,1.20
2022-10-05T20:22:29.222Z,1.40
2022-10-05T20:24:58.545Z,1.00
2022-10-05T20:27:40.953Z,0.90
2022-10-05T20:30:10.178Z,1.00
2022-10-05T20:32:36.807Z,0.93
2022-10-05T20:35:03.608Z,1.10
2022-10-05T20:37:30.213Z,1.20
2022-10-05T20:39:56.801Z,1.23
2022-10-05T20:42:23.874Z,1.40
2022-10-05T20:44:56.535Z,1.10
2022-10-05T20:47:24.122Z,1.10
2022-10-05T20:49:50.772Z,1.27
2022-10-05T20:52:17.647Z,1.48
2022-10-05T20:57:10.938Z,1.05
2022-10-05T20:59:37.601Z,1.25
2022-10-05T21:02:05.231Z,1.15
2022-10-05T21:04:42.869Z,0.98
2022-10-05T21:07:10.091Z,1.00
2022-10-05T21:09:38.466Z,1.17
2022-10-05T21:12:05.232Z,1.20
2022-10-05T21:14:34.509Z,1.00
2022-10-05T21:17:02.064Z,1.23
2022-10-05T21:19:29.532Z,1.05
2022-10-05T21:21:59.139Z,0.95
2022-10-05T21:24:25.846Z,1.30
2022-10-05T21:26:52.742Z,1.10
2022-10-05T21:29:19.399Z,1.23
2022-10-05T21:31:45.994Z,1.15
2022-10-05T21:34:12.695Z,1.30
2022-10-05T21:36:39.419Z,1.13
2022-10-05T21:39:05.999Z,1.40
2022-10-05T21:41:32.544Z,1.10
2022-10-05T21:43:59.161Z,1.20
2022-10-05T21:46:26.677Z,1.63
2022-10-05T21:48:54.646Z,1.20
2022-10-05T21:51:24.157Z,1.33
2022-10-05T21:53:56.267Z,1.02
2022-10-05T21:56:28.105Z,1.20
2022-10-05T21:58:55.187Z,1.27
2022-10-05T22:01:23.077Z,1.02
2022-10-05T22:03:49.965Z,1.30
2022-10-05T22:06:16.624Z,1.73
2022-10-05T22:08:43.347Z,1.35
2022-10-05T22:11:15.738Z,1.30
2022-10-05T22:13:53.124Z,1.75
2022-10-05T22:16:22.291Z,1.48
2022-10-05T22:18:49.419Z,1.20
2022-10-05T22:21:18.733Z,1.48
2022-10-05T22:23:46.097Z,1.20
2022-10-05T22:26:16.770Z,1.33
2022-10-05T22:31:12.508Z,1.52
2022-10-05T22:33:40.050Z,1.30
2022-10-05T22:36:07.955Z,1.63
2022-10-05T22:38:34.504Z,1.50
2022-10-05T22:41:01.081Z,1.33
2022-10-05T22:43:27.801Z,1.23
2022-10-05T22:45:55.265Z,1.40
2022-10-05T22:48:22.511Z,1.52
2022-10-05T22:50:49.414Z,1.42
2022-10-05T22:53:16.287Z,1.30
2022-10-05T22:55:42.877Z,1.40
2022-10-05T22:58:09.733Z,1.40
2022-10-05T23:00:56.873Z,1.38
2022-10-05T23:03:23.168Z,1.38
2022-10-05T23:06:00.698Z,1.50
2022-10-05T23:08:27.842Z,1.20
2022-10-05T23:10:54.748Z,1.10
2022-10-05T23:13:22.520Z,1.10
2022-10-05T23:15:49.265Z,1.20
2022-10-05T23:18:16.828Z,1.10
2022-10-05T23:20:43.467Z,1.60
2022-10-05T23:23:10.514Z,1.23
2022-10-05T23:25:37.068Z,1.17
2022-10-05T23:28:03.937Z,1.30
2022-10-05T23:30:30.657Z,1.20
2022-10-05T23:32:57.269Z,1.00
2022-10-05T23:35:23.875Z,0.98
2022-10-05T23:37:50.479Z,1.10
2022-10-05T23:40:17.074Z,0.90
2022-10-05T23:42:43.611Z,0.90
2022-10-05T23:45:12.032Z,1.50
2022-10-05T23:47:39.565Z,1.10
2022-10-05T23:50:08.164Z,1.15
2022-10-05T23:52:35.442Z,1.20
2022-10-05T23:55:02.892Z,1.30
2022-10-05T23:57:29.416Z,1.25
2022-10-05T23:59:56.484Z,1.40
